sensor_id;sensor_type;location;lat;lon;timestamp;temperature;humidity
66576;SHT31;53428;47.686;16.584;2023-07-24T00:00:07;22.53;87.51
66576;SHT31;53428;47.686;16.584;2023-07-24T00:05:07;22.29;88.01
66576;SHT31;53428;47.686;16.584;2023-07-24T00:10:07;22.24;88.73
66576;SHT31;53428;47.686;16.584;2023-07-24T00:15:07;22.26;89.47
66576;SHT31;53428;47.686;16.584;2023-07-24T00:20:07;21.99;90.37
66576;SHT31;53428;47.686;16.584;2023-07-24T00:25:07;22.05;90.75
66576;SHT31;53428;47.686;16.584;2023-07-24T00:30:08;21.83;91.34
66576;SHT31;53428;47.686;16.584;2023-07-24T00:35:09;21.62;92.34
66576;SHT31;53428;47.686;16.584;2023-07-24T00:40:09;21.71;91.92
66576;SHT31;53428;47.686;16.584;2023-07-24T00:45:09;21.71;92.23
66576;SHT31;53428;47.686;16.584;2023-07-24T00:50:09;21.59;92.69
66576;SHT31;53428;47.686;16.584;2023-07-24T00:55:11;21.55;92.51
66576;SHT31;53428;47.686;16.584;2023-07-24T01:00:11;21.31;92.51
66576;SHT31;53428;47.686;16.584;2023-07-24T01:05:13;21.07;92.80
66576;SHT31;53428;47.686;16.584;2023-07-24T01:10:13;21.08;92.48
66576;SHT31;53428;47.686;16.584;2023-07-24T01:15:18;21.13;92.16
66576;SHT31;53428;47.686;16.584;2023-07-24T01:20:19;20.99;91.77
66576;SHT31;53428;47.686;16.584;2023-07-24T01:25:31;20.82;92.07
66576;SHT31;53428;47.686;16.584;2023-07-24T01:30:30;20.90;91.75
66576;SHT31;53428;47.686;16.584;2023-07-24T01:35:30;20.73;91.80
66576;SHT31;53428;47.686;16.584;2023-07-24T01:40:31;20.49;92.10
66576;SHT31;53428;47.686;16.584;2023-07-24T01:45:30;20.47;92.44
66576;SHT31;53428;47.686;16.584;2023-07-24T01:50:31;20.27;92.70
66576;SHT31;53428;47.686;16.584;2023-07-24T01:55:30;20.18;90.92
66576;SHT31;53428;47.686;16.584;2023-07-24T02:00:30;20.17;91.25
66576;SHT31;53428;47.686;16.584;2023-07-24T02:05:29;20.13;87.07
66576;SHT31;53428;47.686;16.584;2023-07-24T02:10:29;20.21;86.65
66576;SHT31;53428;47.686;16.584;2023-07-24T02:15:28;19.96;87.60
66576;SHT31;53428;47.686;16.584;2023-07-24T02:20:28;19.90;88.06
66576;SHT31;53428;47.686;16.584;2023-07-24T02:25:27;19.84;90.04
66576;SHT31;53428;47.686;16.584;2023-07-24T02:30:27;19.76;89.73
66576;SHT31;53428;47.686;16.584;2023-07-24T02:35:26;19.83;90.12
66576;SHT31;53428;47.686;16.584;2023-07-24T02:40:25;19.60;90.52
66576;SHT31;53428;47.686;16.584;2023-07-24T02:45:25;19.58;91.74
66576;SHT31;53428;47.686;16.584;2023-07-24T02:50:24;19.53;88.25
66576;SHT31;53428;47.686;16.584;2023-07-24T02:55:23;19.63;86.97
66576;SHT31;53428;47.686;16.584;2023-07-24T03:00:23;19.36;88.01
66576;SHT31;53428;47.686;16.584;2023-07-24T03:05:23;19.11;87.92
66576;SHT31;53428;47.686;16.584;2023-07-24T03:10:25;19.04;89.02
66576;SHT31;53428;47.686;16.584;2023-07-24T03:15:24;19.01;89.14
66576;SHT31;53428;47.686;16.584;2023-07-24T03:20:23;18.84;89.18
66576;SHT31;53428;47.686;16.584;2023-07-24T03:25:22;18.80;88.76
66576;SHT31;53428;47.686;16.584;2023-07-24T03:30:22;18.80;88.40
66576;SHT31;53428;47.686;16.584;2023-07-24T03:35:22;18.93;88.10
66576;SHT31;53428;47.686;16.584;2023-07-24T03:40:21;19.10;87.49
66576;SHT31;53428;47.686;16.584;2023-07-24T03:45:21;19.07;87.17
66576;SHT31;53428;47.686;16.584;2023-07-24T03:50:20;19.21;87.06
66576;SHT31;53428;47.686;16.584;2023-07-24T03:55:20;19.28;86.87
66576;SHT31;53428;47.686;16.584;2023-07-24T04:00:20;19.43;86.34
66576;SHT31;53428;47.686;16.584;2023-07-24T04:05:19;19.45;86.29
66576;SHT31;53428;47.686;16.584;2023-07-24T04:10:18;19.45;86.30
66576;SHT31;53428;47.686;16.584;2023-07-24T04:15:18;19.32;86.08
66576;SHT31;53428;47.686;16.584;2023-07-24T04:20:17;19.42;85.59
66576;SHT31;53428;47.686;16.584;2023-07-24T04:25:17;19.41;85.58
66576;SHT31;53428;47.686;16.584;2023-07-24T04:30:16;19.58;84.75
66576;SHT31;53428;47.686;16.584;2023-07-24T04:35:16;19.60;84.25
66576;SHT31;53428;47.686;16.584;2023-07-24T04:40:15;19.66;83.93
66576;SHT31;53428;47.686;16.584;2023-07-24T04:45:14;19.74;83.89
66576;SHT31;53428;47.686;16.584;2023-07-24T04:50:14;19.90;83.49
66576;SHT31;53428;47.686;16.584;2023-07-24T04:55:13;20.11;82.59
66576;SHT31;53428;47.686;16.584;2023-07-24T05:00:13;20.06;80.00
66576;SHT31;53428;47.686;16.584;2023-07-24T05:05:12;20.27;79.20
66576;SHT31;53428;47.686;16.584;2023-07-24T05:10:12;20.31;79.63
66576;SHT31;53428;47.686;16.584;2023-07-24T05:15:12;20.59;79.17
66576;SHT31;53428;47.686;16.584;2023-07-24T05:20:11;20.96;79.02
66576;SHT31;53428;47.686;16.584;2023-07-24T05:25:11;21.22;80.00
66576;SHT31;53428;47.686;16.584;2023-07-24T05:30:10;21.47;80.30
66576;SHT31;53428;47.686;16.584;2023-07-24T05:35:10;21.79;82.33
66576;SHT31;53428;47.686;16.584;2023-07-24T05:40:09;21.65;83.40
66576;SHT31;53428;47.686;16.584;2023-07-24T05:45:09;21.50;84.37
66576;SHT31;53428;47.686;16.584;2023-07-24T05:50:10;21.78;83.52
66576;SHT31;53428;47.686;16.584;2023-07-24T05:55:09;22.29;82.09
66576;SHT31;53428;47.686;16.584;2023-07-24T06:00:09;22.05;82.39
66576;SHT31;53428;47.686;16.584;2023-07-24T06:05:09;22.47;80.58
66576;SHT31;53428;47.686;16.584;2023-07-24T06:10:08;22.85;79.63
66576;SHT31;53428;47.686;16.584;2023-07-24T06:15:08;23.42;78.36
66576;SHT31;53428;47.686;16.584;2023-07-24T06:20:07;23.71;77.43
66576;SHT31;53428;47.686;16.584;2023-07-24T06:25:07;23.93;76.34
66576;SHT31;53428;47.686;16.584;2023-07-24T06:30:07;24.32;74.78
66576;SHT31;53428;47.686;16.584;2023-07-24T06:35:06;24.83;73.24
66576;SHT31;53428;47.686;16.584;2023-07-24T06:40:07;25.58;69.37
66576;SHT31;53428;47.686;16.584;2023-07-24T06:45:07;26.14;68.35
66576;SHT31;53428;47.686;16.584;2023-07-24T06:50:07;26.34;68.54
66576;SHT31;53428;47.686;16.584;2023-07-24T06:55:07;26.55;68.32
66576;SHT31;53428;47.686;16.584;2023-07-24T07:00:07;26.72;67.10
66576;SHT31;53428;47.686;16.584;2023-07-24T07:05:10;26.89;66.27
66576;SHT31;53428;47.686;16.584;2023-07-24T07:10:10;26.96;66.01
66576;SHT31;53428;47.686;16.584;2023-07-24T07:15:09;27.27;66.14
66576;SHT31;53428;47.686;16.584;2023-07-24T07:20:09;27.53;66.46
66576;SHT31;53428;47.686;16.584;2023-07-24T07:25:08;27.60;66.87
66576;SHT31;53428;47.686;16.584;2023-07-24T07:30:08;27.78;64.59
66576;SHT31;53428;47.686;16.584;2023-07-24T07:35:07;27.87;63.38
66576;SHT31;53428;47.686;16.584;2023-07-24T07:40:07;28.04;63.47
66576;SHT31;53428;47.686;16.584;2023-07-24T07:45:07;28.40;62.44
66576;SHT31;53428;47.686;16.584;2023-07-24T07:50:07;28.56;61.78
66576;SHT31;53428;47.686;16.584;2023-07-24T07:55:07;28.80;62.44
66576;SHT31;53428;47.686;16.584;2023-07-24T08:00:07;28.90;61.79
66576;SHT31;53428;47.686;16.584;2023-07-24T08:05:08;29.01;60.24
66576;SHT31;53428;47.686;16.584;2023-07-24T08:10:07;29.35;59.87
66576;SHT31;53428;47.686;16.584;2023-07-24T08:15:07;29.38;60.09
66576;SHT31;53428;47.686;16.584;2023-07-24T08:20:07;29.76;59.39
66576;SHT31;53428;47.686;16.584;2023-07-24T08:25:07;29.92;57.53
66576;SHT31;53428;47.686;16.584;2023-07-24T08:30:06;30.01;57.70
66576;SHT31;53428;47.686;16.584;2023-07-24T08:35:06;29.89;57.41
66576;SHT31;53428;47.686;16.584;2023-07-24T08:40:06;30.01;58.65
66576;SHT31;53428;47.686;16.584;2023-07-24T08:45:11;29.99;58.73
66576;SHT31;53428;47.686;16.584;2023-07-24T08:50:13;30.41;58.94
66576;SHT31;53428;47.686;16.584;2023-07-24T08:55:14;30.89;58.70
66576;SHT31;53428;47.686;16.584;2023-07-24T09:00:14;31.02;57.60
66576;SHT31;53428;47.686;16.584;2023-07-24T09:05:13;30.79;56.18
66576;SHT31;53428;47.686;16.584;2023-07-24T09:10:14;30.92;56.12
66576;SHT31;53428;47.686;16.584;2023-07-24T09:15:13;30.99;55.42
66576;SHT31;53428;47.686;16.584;2023-07-24T09:20:13;31.07;54.84
66576;SHT31;53428;47.686;16.584;2023-07-24T09:25:12;31.03;54.01
66576;SHT31;53428;47.686;16.584;2023-07-24T09:30:13;31.17;53.69
66576;SHT31;53428;47.686;16.584;2023-07-24T09:35:17;31.13;53.21
66576;SHT31;53428;47.686;16.584;2023-07-24T09:40:19;31.53;53.89
66576;SHT31;53428;47.686;16.584;2023-07-24T09:45:19;31.77;53.23
66576;SHT31;53428;47.686;16.584;2023-07-24T09:50:19;31.61;53.26
66576;SHT31;53428;47.686;16.584;2023-07-24T09:55:21;31.72;52.20
66576;SHT31;53428;47.686;16.584;2023-07-24T10:00:27;32.05;51.69
66576;SHT31;53428;47.686;16.584;2023-07-24T10:05:27;32.19;51.47
66576;SHT31;53428;47.686;16.584;2023-07-24T10:10:27;32.29;50.99
66576;SHT31;53428;47.686;16.584;2023-07-24T10:15:29;32.90;50.17
66576;SHT31;53428;47.686;16.584;2023-07-24T10:20:39;32.46;50.25
66576;SHT31;53428;47.686;16.584;2023-07-24T10:25:39;32.63;49.46
66576;SHT31;53428;47.686;16.584;2023-07-24T10:30:42;32.64;49.31
66576;SHT31;53428;47.686;16.584;2023-07-24T10:35:44;32.83;49.35
66576;SHT31;53428;47.686;16.584;2023-07-24T10:40:46;32.83;49.22
66576;SHT31;53428;47.686;16.584;2023-07-24T10:45:49;33.05;49.22
66576;SHT31;53428;47.686;16.584;2023-07-24T10:50:50;33.19;48.82
66576;SHT31;53428;47.686;16.584;2023-07-24T10:55:50;34.47;47.17
66576;SHT31;53428;47.686;16.584;2023-07-24T11:00:50;34.07;47.76
66576;SHT31;53428;47.686;16.584;2023-07-24T11:05:49;33.51;48.69
66576;SHT31;53428;47.686;16.584;2023-07-24T11:10:56;33.39;48.23
66576;SHT31;53428;47.686;16.584;2023-07-24T11:15:56;34.36;47.44
66576;SHT31;53428;47.686;16.584;2023-07-24T11:20:56;34.86;48.93
66576;SHT31;53428;47.686;16.584;2023-07-24T11:25:55;35.54;50.51
66576;SHT31;53428;47.686;16.584;2023-07-24T11:31:02;36.25;49.72
66576;SHT31;53428;47.686;16.584;2023-07-24T11:36:01;35.57;47.56
66576;SHT31;53428;47.686;16.584;2023-07-24T11:41:01;35.57;47.76
66576;SHT31;53428;47.686;16.584;2023-07-24T11:46:01;35.34;49.15
66576;SHT31;53428;47.686;16.584;2023-07-24T11:51:00;37.28;46.34
66576;SHT31;53428;47.686;16.584;2023-07-24T11:56:00;35.67;48.40
66576;SHT31;53428;47.686;16.584;2023-07-24T12:01:02;35.02;49.60
66576;SHT31;53428;47.686;16.584;2023-07-24T12:06:02;34.71;50.48
66576;SHT31;53428;47.686;16.584;2023-07-24T12:11:02;33.99;52.25
66576;SHT31;53428;47.686;16.584;2023-07-24T12:16:02;33.79;52.98
66576;SHT31;53428;47.686;16.584;2023-07-24T12:21:01;32.88;53.80
66576;SHT31;53428;47.686;16.584;2023-07-24T12:26:01;32.46;54.03
66576;SHT31;53428;47.686;16.584;2023-07-24T12:31:00;32.47;56.16
66576;SHT31;53428;47.686;16.584;2023-07-24T12:36:01;33.62;54.55
66576;SHT31;53428;47.686;16.584;2023-07-24T12:41:01;33.19;55.00
66576;SHT31;53428;47.686;16.584;2023-07-24T12:46:01;34.21;53.83
66576;SHT31;53428;47.686;16.584;2023-07-24T12:51:00;34.52;53.58
66576;SHT31;53428;47.686;16.584;2023-07-24T12:56:00;33.72;55.30
66576;SHT31;53428;47.686;16.584;2023-07-24T13:00:59;32.26;57.77
66576;SHT31;53428;47.686;16.584;2023-07-24T13:05:59;32.37;57.76
66576;SHT31;53428;47.686;16.584;2023-07-24T13:10:59;33.45;56.08
66576;SHT31;53428;47.686;16.584;2023-07-24T13:15:59;32.78;55.31
66576;SHT31;53428;47.686;16.584;2023-07-24T13:20:58;33.73;54.47
66576;SHT31;53428;47.686;16.584;2023-07-24T13:25:58;33.15;55.57
66576;SHT31;53428;47.686;16.584;2023-07-24T13:30:57;32.61;56.36
66576;SHT31;53428;47.686;16.584;2023-07-24T13:35:57;33.05;56.26
66576;SHT31;53428;47.686;16.584;2023-07-24T13:40:57;33.12;56.05
66576;SHT31;53428;47.686;16.584;2023-07-24T13:45:57;32.94;56.71
66576;SHT31;53428;47.686;16.584;2023-07-24T13:50:56;32.43;57.77
66576;SHT31;53428;47.686;16.584;2023-07-24T13:55:56;32.57;57.78
66576;SHT31;53428;47.686;16.584;2023-07-24T14:00:56;31.91;58.50
66576;SHT31;53428;47.686;16.584;2023-07-24T14:05:56;31.91;59.48
66576;SHT31;53428;47.686;16.584;2023-07-24T14:10:56;31.82;59.27
66576;SHT31;53428;47.686;16.584;2023-07-24T14:15:56;31.61;59.46
66576;SHT31;53428;47.686;16.584;2023-07-24T14:20:55;31.55;60.59
66576;SHT31;53428;47.686;16.584;2023-07-24T14:25:56;31.53;60.19
66576;SHT31;53428;47.686;16.584;2023-07-24T14:30:56;31.47;60.96
66576;SHT31;53428;47.686;16.584;2023-07-24T14:35:56;31.65;60.79
66576;SHT31;53428;47.686;16.584;2023-07-24T14:40:55;31.36;61.19
66576;SHT31;53428;47.686;16.584;2023-07-24T14:45:55;30.67;61.54
66576;SHT31;53428;47.686;16.584;2023-07-24T14:50:54;30.69;61.40
66576;SHT31;53428;47.686;16.584;2023-07-24T14:55:54;30.96;60.82
66576;SHT31;53428;47.686;16.584;2023-07-24T15:00:54;30.72;61.41
66576;SHT31;53428;47.686;16.584;2023-07-24T15:05:53;30.79;61.10
66576;SHT31;53428;47.686;16.584;2023-07-24T15:10:55;30.89;60.76
66576;SHT31;53428;47.686;16.584;2023-07-24T15:15:54;30.62;60.94
66576;SHT31;53428;47.686;16.584;2023-07-24T15:20:54;30.64;60.63
66576;SHT31;53428;47.686;16.584;2023-07-24T15:25:54;30.51;60.91
66576;SHT31;53428;47.686;16.584;2023-07-24T15:30:54;30.49;61.07
66576;SHT31;53428;47.686;16.584;2023-07-24T15:35:54;30.48;60.83
66576;SHT31;53428;47.686;16.584;2023-07-24T15:40:53;30.35;60.88
66576;SHT31;53428;47.686;16.584;2023-07-24T15:45:53;30.14;61.11
66576;SHT31;53428;47.686;16.584;2023-07-24T15:50:52;30.04;61.38
66576;SHT31;53428;47.686;16.584;2023-07-24T15:55:52;30.07;61.27
66576;SHT31;53428;47.686;16.584;2023-07-24T16:00:51;29.93;61.90
66576;SHT31;53428;47.686;16.584;2023-07-24T16:05:50;29.79;62.15
66576;SHT31;53428;47.686;16.584;2023-07-24T16:10:50;29.76;62.42
66576;SHT31;53428;47.686;16.584;2023-07-24T16:15:49;29.99;61.70
66576;SHT31;53428;47.686;16.584;2023-07-24T16:20:48;30.76;60.11
66576;SHT31;53428;47.686;16.584;2023-07-24T16:25:48;30.58;60.29
66576;SHT31;53428;47.686;16.584;2023-07-24T16:30:47;29.96;61.55
66576;SHT31;53428;47.686;16.584;2023-07-24T16:35:47;29.65;61.79
66576;SHT31;53428;47.686;16.584;2023-07-24T16:40:47;29.49;61.94
66576;SHT31;53428;47.686;16.584;2023-07-24T16:45:47;29.32;62.10
66576;SHT31;53428;47.686;16.584;2023-07-24T16:50:50;29.26;61.92
66576;SHT31;53428;47.686;16.584;2023-07-24T16:55:50;29.21;62.32
66576;SHT31;53428;47.686;16.584;2023-07-24T17:00:49;29.29;61.73
66576;SHT31;53428;47.686;16.584;2023-07-24T17:05:49;29.39;60.58
66576;SHT31;53428;47.686;16.584;2023-07-24T17:10:49;29.44;60.04
66576;SHT31;53428;47.686;16.584;2023-07-24T17:15:49;29.35;60.14
66576;SHT31;53428;47.686;16.584;2023-07-24T17:20:49;29.29;60.66
66576;SHT31;53428;47.686;16.584;2023-07-24T17:25:49;29.19;60.25
66576;SHT31;53428;47.686;16.584;2023-07-24T17:30:49;29.12;60.12
66576;SHT31;53428;47.686;16.584;2023-07-24T17:35:49;29.15;59.95
66576;SHT31;53428;47.686;16.584;2023-07-24T17:40:50;29.08;59.84
66576;SHT31;53428;47.686;16.584;2023-07-24T17:45:50;29.07;59.84
66576;SHT31;53428;47.686;16.584;2023-07-24T17:50:51;29.11;60.11
66576;SHT31;53428;47.686;16.584;2023-07-24T17:55:51;28.97;60.83
66576;SHT31;53428;47.686;16.584;2023-07-24T18:00:50;28.78;62.04
66576;SHT31;53428;47.686;16.584;2023-07-24T18:05:51;28.48;63.30
66576;SHT31;53428;47.686;16.584;2023-07-24T18:10:52;28.26;63.69
66576;SHT31;53428;47.686;16.584;2023-07-24T18:15:52;28.13;63.83
66576;SHT31;53428;47.686;16.584;2023-07-24T18:20:52;28.18;63.75
66576;SHT31;53428;47.686;16.584;2023-07-24T18:25:52;28.42;60.86
66576;SHT31;53428;47.686;16.584;2023-07-24T18:30:52;28.63;58.23
66576;SHT31;53428;47.686;16.584;2023-07-24T18:35:51;28.50;57.77
66576;SHT31;53428;47.686;16.584;2023-07-24T18:40:51;28.46;57.61
66576;SHT31;53428;47.686;16.584;2023-07-24T18:45:50;28.33;57.48
66576;SHT31;53428;47.686;16.584;2023-07-24T18:50:50;28.12;57.65
66576;SHT31;53428;47.686;16.584;2023-07-24T18:55:50;28.05;57.57
66576;SHT31;53428;47.686;16.584;2023-07-24T19:00:51;28.00;57.28
66576;SHT31;53428;47.686;16.584;2023-07-24T19:05:51;27.67;58.25
66576;SHT31;53428;47.686;16.584;2023-07-24T19:10:51;27.47;58.67
66576;SHT31;53428;47.686;16.584;2023-07-24T19:15:50;27.27;59.16
66576;SHT31;53428;47.686;16.584;2023-07-24T19:20:50;27.10;60.60
66576;SHT31;53428;47.686;16.584;2023-07-24T19:25:50;26.75;61.53
66576;SHT31;53428;47.686;16.584;2023-07-24T19:30:51;26.55;61.86
66576;SHT31;53428;47.686;16.584;2023-07-24T19:36:00;26.55;61.31
66576;SHT31;53428;47.686;16.584;2023-07-24T19:41:03;26.45;62.90
66576;SHT31;53428;47.686;16.584;2023-07-24T19:46:06;26.26;63.39
66576;SHT31;53428;47.686;16.584;2023-07-24T19:51:06;26.12;64.00
66576;SHT31;53428;47.686;16.584;2023-07-24T19:56:06;25.93;64.91
66576;SHT31;53428;47.686;16.584;2023-07-24T20:01:07;25.68;65.80
66576;SHT31;53428;47.686;16.584;2023-07-24T20:06:09;25.59;66.24
66576;SHT31;53428;47.686;16.584;2023-07-24T20:11:11;25.45;66.84
66576;SHT31;53428;47.686;16.584;2023-07-24T20:16:11;25.35;67.31
66576;SHT31;53428;47.686;16.584;2023-07-24T20:21:10;25.33;67.50
66576;SHT31;53428;47.686;16.584;2023-07-24T20:26:10;25.30;67.69
66576;SHT31;53428;47.686;16.584;2023-07-24T20:31:10;25.18;68.30
66576;SHT31;53428;47.686;16.584;2023-07-24T20:36:11;25.04;68.88
66576;SHT31;53428;47.686;16.584;2023-07-24T20:41:12;24.94;69.36
66576;SHT31;53428;47.686;16.584;2023-07-24T20:46:13;24.86;69.74
66576;SHT31;53428;47.686;16.584;2023-07-24T20:51:15;24.83;69.89
66576;SHT31;53428;47.686;16.584;2023-07-24T20:56:15;24.90;69.62
66576;SHT31;53428;47.686;16.584;2023-07-24T21:01:16;24.91;69.70
66576;SHT31;53428;47.686;16.584;2023-07-24T21:06:15;24.94;69.63
66576;SHT31;53428;47.686;16.584;2023-07-24T21:11:15;24.96;69.78
66576;SHT31;53428;47.686;16.584;2023-07-24T21:16:15;25.00;69.65
66576;SHT31;53428;47.686;16.584;2023-07-24T21:21:15;24.98;69.66
66576;SHT31;53428;47.686;16.584;2023-07-24T21:26:14;24.94;70.30
66576;SHT31;53428;47.686;16.584;2023-07-24T21:31:14;24.84;70.75
66576;SHT31;53428;47.686;16.584;2023-07-24T21:36:13;24.79;71.07
66576;SHT31;53428;47.686;16.584;2023-07-24T21:41:13;24.76;71.27
66576;SHT31;53428;47.686;16.584;2023-07-24T21:46:12;24.63;72.23
66576;SHT31;53428;47.686;16.584;2023-07-24T21:51:12;24.56;74.66
66576;SHT31;53428;47.686;16.584;2023-07-24T21:56:11;24.40;76.55
66576;SHT31;53428;47.686;16.584;2023-07-24T22:01:11;24.25;76.74
66576;SHT31;53428;47.686;16.584;2023-07-24T22:06:10;24.15;78.53
66576;SHT31;53428;47.686;16.584;2023-07-24T22:11:14;23.96;81.37
66576;SHT31;53428;47.686;16.584;2023-07-24T22:16:14;23.93;80.06
66576;SHT31;53428;47.686;16.584;2023-07-24T22:21:14;23.74;80.25
66576;SHT31;53428;47.686;16.584;2023-07-24T22:26:14;23.54;81.37
66576;SHT31;53428;47.686;16.584;2023-07-24T22:31:13;23.36;82.57
66576;SHT31;53428;47.686;16.584;2023-07-24T22:36:12;23.22;84.41
66576;SHT31;53428;47.686;16.584;2023-07-24T22:41:12;23.01;85.45
66576;SHT31;53428;47.686;16.584;2023-07-24T22:46:12;23.08;85.24
66576;SHT31;53428;47.686;16.584;2023-07-24T22:51:11;23.01;85.80
66576;SHT31;53428;47.686;16.584;2023-07-24T22:56:10;23.06;86.54
66576;SHT31;53428;47.686;16.584;2023-07-24T23:01:10;22.98;86.76
66576;SHT31;53428;47.686;16.584;2023-07-24T23:06:09;22.94;87.18
66576;SHT31;53428;47.686;16.584;2023-07-24T23:11:08;22.92;87.94
66576;SHT31;53428;47.686;16.584;2023-07-24T23:16:07;22.87;87.04
66576;SHT31;53428;47.686;16.584;2023-07-24T23:21:07;22.85;86.41
66576;SHT31;53428;47.686;16.584;2023-07-24T23:26:06;22.83;84.44
66576;SHT31;53428;47.686;16.584;2023-07-24T23:31:06;23.23;79.96
66576;SHT31;53428;47.686;16.584;2023-07-24T23:36:06;23.33;80.44
66576;SHT31;53428;47.686;16.584;2023-07-24T23:41:07;23.06;81.39
66576;SHT31;53428;47.686;16.584;2023-07-24T23:46:14;22.96;82.30
66576;SHT31;53428;47.686;16.584;2023-07-24T23:51:21;22.81;81.93
66576;SHT31;53428;47.686;16.584;2023-07-24T23:56:21;22.85;83.03
